Time;durP1;ratioP1;P1;durP2;ratioP2;P2;SDS_P1;SDS_P2;PMS_P1;PMS_P2;Temp;Humidity;BMP_temperature;BMP_pressure;BME280_temperature;BME280_humidity;BME280_pressure;Samples;Min_cycle;Max_cycle;Signal;HPM_P1;HPM_P2
2021/10/15 00:01:32;;;;;;;6.13;5.53;;;;;;;;;;5071870;28;20186;-85
2021/10/15 00:04:17;;;;;;;6.93;5.40;;;;;;;;;;5071880;28;20657;-85
2021/10/15 00:07:02;;;;;;;6.53;4.77;;;;;;;;;;5071391;28;20193;-85
2021/10/15 00:09:47;;;;;;;6.87;5.30;;;;;;;;;;5071686;28;20181;-85
2021/10/15 00:12:32;;;;;;;7.40;5.60;;;;;;;;;;5071580;28;20234;-85
2021/10/15 00:15:19;;;;;;;6.63;5.07;;;;;;;;;;5071695;28;20232;-85
2021/10/15 00:18:04;;;;;;;6.10;5.40;;;;;;;;;;5071345;28;20205;-84
2021/10/15 00:20:49;;;;;;;6.53;5.40;;;;;;;;;;5071559;28;20185;-85
2021/10/15 00:23:34;;;;;;;8.13;6.03;;;;;;;;;;5071366;28;20321;-85
2021/10/15 00:26:19;;;;;;;6.10;5.03;;;;;;;;;;5071564;28;20237;-85
2021/10/15 00:29:05;;;;;;;5.37;4.97;;;;;;;;;;5071565;28;20185;-85
2021/10/15 00:31:53;;;;;;;6.87;5.67;;;;;;;;;;5071392;28;20186;-85
2021/10/15 00:34:39;;;;;;;5.93;5.33;;;;;;;;;;5071558;28;20213;-85
2021/10/15 00:37:24;;;;;;;6.10;5.60;;;;;;;;;;5071690;28;20236;-85
2021/10/15 00:40:09;;;;;;;5.87;5.27;;;;;;;;;;5071734;28;20181;-85
2021/10/15 00:42:54;;;;;;;5.90;5.30;;;;;;;;;;5071342;28;20182;-84
2021/10/15 00:45:40;;;;;;;6.23;5.67;;;;;;;;;;5071476;28;20612;-85
2021/10/15 00:48:26;;;;;;;6.77;5.13;;;;;;;;;;5071250;28;20182;-85
2021/10/15 00:51:11;;;;;;;10.40;5.67;;;;;;;;;;5071306;28;20740;-85
2021/10/15 00:53:56;;;;;;;6.67;5.57;;;;;;;;;;5086490;28;20214;-91
2021/10/15 00:56:43;;;;;;;5.87;5.37;;;;;;;;;;5072102;28;20271;-90
2021/10/15 00:59:28;;;;;;;6.20;5.60;;;;;;;;;;5072199;28;20256;-92
2021/10/15 01:02:13;;;;;;;5.97;5.33;;;;;;;;;;5072145;28;20201;-89
2021/10/15 01:04:59;;;;;;;5.60;5.10;;;;;;;;;;5071925;28;20186;-91
2021/10/15 01:07:46;;;;;;;8.10;5.10;;;;;;;;;;5072200;28;20284;-89
2021/10/15 01:10:31;;;;;;;6.20;5.10;;;;;;;;;;5072127;28;20308;-91
2021/10/15 01:13:16;;;;;;;6.17;5.57;;;;;;;;;;5072116;28;20229;-90
2021/10/15 01:16:02;;;;;;;9.73;5.67;;;;;;;;;;5072096;28;20542;-91
2021/10/15 01:18:47;;;;;;;5.93;5.07;;;;;;;;;;5073773;28;20240;-91
2021/10/15 01:21:33;;;;;;;6.93;5.80;;;;;;;;;;5075977;28;20439;-92
2021/10/15 01:24:18;;;;;;;6.17;5.57;;;;;;;;;;5075707;28;20546;-92
2021/10/15 01:27:05;;;;;;;7.43;5.90;;;;;;;;;;5075606;28;20190;-91
2021/10/15 01:29:51;;;;;;;7.13;5.87;;;;;;;;;;5075615;28;20757;-91
2021/10/15 01:32:36;;;;;;;6.20;5.50;;;;;;;;;;5075511;28;20566;-91
2021/10/15 01:35:21;;;;;;;13.00;5.83;;;;;;;;;;5075558;28;20189;-91
2021/10/15 01:38:07;;;;;;;5.97;5.40;;;;;;;;;;5075428;28;20268;-90
2021/10/15 01:40:52;;;;;;;6.47;5.83;;;;;;;;;;5075396;28;20232;-91
2021/10/15 01:43:37;;;;;;;5.83;5.07;;;;;;;;;;5075572;28;20257;-91
2021/10/15 01:46:22;;;;;;;7.50;6.80;;;;;;;;;;5075361;28;20194;-90
2021/10/15 01:49:07;;;;;;;9.43;5.33;;;;;;;;;;5075222;28;20209;-91
2021/10/15 01:51:52;;;;;;;6.70;5.30;;;;;;;;;;5074896;28;20202;-89
2021/10/15 01:54:39;;;;;;;7.20;5.33;;;;;;;;;;5075279;28;20260;-90
2021/10/15 01:57:24;;;;;;;6.30;5.73;;;;;;;;;;5075199;28;20185;-90
2021/10/15 02:00:10;;;;;;;6.67;5.97;;;;;;;;;;5075001;28;20194;-90
2021/10/15 02:02:55;;;;;;;8.57;6.30;;;;;;;;;;5074785;28;20279;-91
2021/10/15 02:05:40;;;;;;;6.63;6.10;;;;;;;;;;5075594;28;20737;-90
2021/10/15 02:08:25;;;;;;;6.93;5.73;;;;;;;;;;5075301;28;20201;-91
2021/10/15 02:11:11;;;;;;;6.73;6.03;;;;;;;;;;5075128;28;20718;-90
2021/10/15 02:13:56;;;;;;;5.80;5.20;;;;;;;;;;5074723;28;20333;-91
2021/10/15 02:16:41;;;;;;;8.77;5.80;;;;;;;;;;5075056;28;20186;-90
2021/10/15 02:19:26;;;;;;;6.27;5.67;;;;;;;;;;5074505;28;20243;-90
2021/10/15 02:22:11;;;;;;;6.97;5.90;;;;;;;;;;5074635;28;20555;-90
2021/10/15 02:24:56;;;;;;;6.27;5.77;;;;;;;;;;5074366;28;20186;-90
2021/10/15 02:27:42;;;;;;;6.30;5.67;;;;;;;;;;5074486;28;20279;-89
2021/10/15 02:30:28;;;;;;;7.97;5.80;;;;;;;;;;5074198;28;20186;-90
2021/10/15 02:33:13;;;;;;;6.07;5.37;;;;;;;;;;5074425;28;20689;-91
2021/10/15 02:35:58;;;;;;;10.67;5.80;;;;;;;;;;5074633;28;20186;-92
2021/10/15 02:38:43;;;;;;;7.90;6.00;;;;;;;;;;5074847;28;20545;-93
2021/10/15 02:41:29;;;;;;;7.20;5.37;;;;;;;;;;5074511;28;20551;-91
2021/10/15 02:44:16;;;;;;;6.00;5.47;;;;;;;;;;5074189;28;20263;-90
2021/10/15 02:47:01;;;;;;;6.43;5.73;;;;;;;;;;5074442;28;20522;-90
2021/10/15 02:49:46;;;;;;;8.27;5.90;;;;;;;;;;5073949;28;20264;-90
2021/10/15 02:52:31;;;;;;;6.13;5.63;;;;;;;;;;5073926;28;20272;-89
2021/10/15 02:55:16;;;;;;;7.97;5.43;;;;;;;;;;5073953;28;20201;-90
2021/10/15 02:58:01;;;;;;;6.10;5.50;;;;;;;;;;5073592;28;20193;-90
2021/10/15 03:00:50;;;;;;;6.93;5.23;;;;;;;;;;5073830;28;20200;-89
2021/10/15 03:03:35;;;;;;;6.03;5.47;;;;;;;;;;5073661;28;20189;-89
2021/10/15 03:06:20;;;;;;;7.80;5.63;;;;;;;;;;5073649;28;20265;-89
2021/10/15 03:09:05;;;;;;;6.43;5.33;;;;;;;;;;5073651;28;20648;-90
2021/10/15 03:11:50;;;;;;;7.93;5.50;;;;;;;;;;5073517;28;20186;-89
2021/10/15 03:14:35;;;;;;;5.47;5.07;;;;;;;;;;5073281;28;20571;-89
2021/10/15 03:17:22;;;;;;;5.83;5.23;;;;;;;;;;5073558;28;20426;-90
2021/10/15 03:20:07;;;;;;;5.50;5.00;;;;;;;;;;5073193;28;20237;-88
2021/10/15 03:22:52;;;;;;;6.73;5.37;;;;;;;;;;5073468;28;20661;-90
2021/10/15 03:25:37;;;;;;;6.50;5.60;;;;;;;;;;5073037;28;20201;-91
2021/10/15 03:28:23;;;;;;;8.70;6.40;;;;;;;;;;5073329;28;20186;-90
2021/10/15 03:31:08;;;;;;;11.83;6.57;;;;;;;;;;5073325;28;20309;-91
2021/10/15 03:33:54;;;;;;;6.63;6.03;;;;;;;;;;5073593;28;20205;-91
2021/10/15 03:36:39;;;;;;;11.17;6.60;;;;;;;;;;5073454;28;20204;-89
2021/10/15 03:39:24;;;;;;;8.73;5.73;;;;;;;;;;5073624;28;20190;-90
2021/10/15 03:42:09;;;;;;;8.13;5.77;;;;;;;;;;5072365;28;20185;-90
2021/10/15 03:44:54;;;;;;;8.73;6.27;;;;;;;;;;5073529;28;20220;-89
2021/10/15 03:47:39;;;;;;;6.47;5.63;;;;;;;;;;5073055;28;20271;-90
2021/10/15 03:50:26;;;;;;;8.03;6.30;;;;;;;;;;5072660;28;20591;-91
2021/10/15 03:53:11;;;;;;;8.60;6.10;;;;;;;;;;5073159;28;20194;-91
2021/10/15 03:55:56;;;;;;;7.10;6.40;;;;;;;;;;5073228;28;20252;-91
2021/10/15 03:58:41;;;;;;;6.67;6.07;;;;;;;;;;5072796;28;20556;-91
2021/10/15 04:01:26;;;;;;;6.90;6.10;;;;;;;;;;5073219;28;20197;-91
2021/10/15 04:04:11;;;;;;;8.30;6.50;;;;;;;;;;5072983;28;20186;-92
2021/10/15 04:06:57;;;;;;;6.73;6.03;;;;;;;;;;5073126;28;20197;-91
2021/10/15 04:09:42;;;;;;;6.90;6.30;;;;;;;;;;5072786;28;20189;-91
2021/10/15 04:12:27;;;;;;;6.47;5.87;;;;;;;;;;5073086;28;20189;-91
2021/10/15 04:15:12;;;;;;;6.80;5.83;;;;;;;;;;5066401;28;20249;-92
2021/10/15 04:17:57;;;;;;;6.80;6.20;;;;;;;;;;5051603;28;20198;-90
2021/10/15 04:20:42;;;;;;;6.60;5.50;;;;;;;;;;5058447;28;20190;-84
2021/10/15 04:23:29;;;;;;;7.20;6.23;;;;;;;;;;5071799;28;20236;-85
2021/10/15 04:26:14;;;;;;;7.23;5.77;;;;;;;;;;5071774;28;20193;-86
2021/10/15 04:28:59;;;;;;;7.73;5.60;;;;;;;;;;5051912;28;20643;-87
2021/10/15 04:31:44;;;;;;;7.73;5.97;;;;;;;;;;5059992;28;20260;-87
2021/10/15 04:34:29;;;;;;;7.37;6.60;;;;;;;;;;5071834;28;20688;-87
2021/10/15 04:37:14;;;;;;;6.77;6.07;;;;;;;;;;5071643;28;20189;-87
2021/10/15 04:40:00;;;;;;;6.57;5.97;;;;;;;;;;5071652;28;20209;-86
2021/10/15 04:42:45;;;;;;;8.13;5.77;;;;;;;;;;5071216;28;20189;-86
2021/10/15 04:45:30;;;;;;;6.63;6.07;;;;;;;;;;5071283;28;20185;-86
2021/10/15 04:48:15;;;;;;;6.33;5.80;;;;;;;;;;5071250;28;20197;-88
2021/10/15 04:51:00;;;;;;;6.40;5.80;;;;;;;;;;5071593;28;20221;-88
2021/10/15 04:53:45;;;;;;;6.80;6.20;;;;;;;;;;5074731;28;20224;-85
2021/10/15 04:56:32;;;;;;;6.63;5.90;;;;;;;;;;5075582;28;20189;-88
2021/10/15 04:59:17;;;;;;;6.33;5.73;;;;;;;;;;5075772;28;20708;-90
2021/10/15 05:02:02;;;;;;;6.27;5.70;;;;;;;;;;5075501;28;20193;-88
2021/10/15 05:04:47;;;;;;;7.37;5.50;;;;;;;;;;5075230;28;20186;-87
2021/10/15 05:07:32;;;;;;;6.27;5.67;;;;;;;;;;5075412;28;20542;-87
2021/10/15 05:10:20;;;;;;;6.17;5.57;;;;;;;;;;5075248;28;20209;-86
2021/10/15 05:13:06;;;;;;;6.40;4.93;;;;;;;;;;5075552;28;20190;-85
2021/10/15 05:15:51;;;;;;;6.43;5.83;;;;;;;;;;5075245;28;20205;-89
2021/10/15 05:18:37;;;;;;;8.20;6.33;;;;;;;;;;5075568;28;20229;-88
2021/10/15 05:21:22;;;;;;;6.60;5.37;;;;;;;;;;5075279;28;20281;-89
2021/10/15 05:24:07;;;;;;;6.47;5.87;;;;;;;;;;5075475;28;20250;-89
2021/10/15 05:26:52;;;;;;;6.43;5.80;;;;;;;;;;5075333;28;20189;-89
2021/10/15 05:29:39;;;;;;;9.77;6.60;;;;;;;;;;5075049;28;20734;-89
2021/10/15 05:32:23;;;;;;;7.60;6.07;;;;;;;;;;5075553;28;20638;-89
2021/10/15 05:35:09;;;;;;;7.90;5.83;;;;;;;;;;5075118;28;20287;-88
2021/10/15 05:37:54;;;;;;;8.33;7.10;;;;;;;;;;5075166;28;20205;-89
2021/10/15 05:40:39;;;;;;;6.83;6.23;;;;;;;;;;5075092;28;20228;-89
2021/10/15 05:43:24;;;;;;;6.97;6.20;;;;;;;;;;5075799;28;20717;-89
2021/10/15 05:46:11;;;;;;;7.63;6.83;;;;;;;;;;5074815;28;20251;-89
2021/10/15 05:48:56;;;;;;;9.27;6.37;;;;;;;;;;5074929;28;20278;-90
2021/10/15 05:51:43;;;;;;;9.30;7.20;;;;;;;;;;5074537;28;20329;-89
2021/10/15 05:54:32;;;;;;;6.97;6.27;;;;;;;;;;5074636;28;20216;-88
2021/10/15 05:57:30;;;;;;;8.73;6.20;;;;;;;;;;5074711;28;20194;-88
2021/10/15 06:00:14;;;;;;;7.00;6.30;;;;;;;;;;5075474;28;20545;-92
2021/10/15 06:03:02;;;;;;;8.13;6.53;;;;;;;;;;5075002;28;20559;-91
2021/10/15 06:15:26;;;;;;;7.30;6.43;;;;;;;;;;5050599;28;20225;-90
2021/10/15 06:18:15;;;;;;;7.60;6.73;;;;;;;;;;5074917;28;20348;-88
2021/10/15 06:21:00;;;;;;;7.23;5.97;;;;;;;;;;5074847;28;20190;-90
2021/10/15 06:23:45;;;;;;;8.70;6.50;;;;;;;;;;5074538;28;20194;-89
2021/10/15 06:26:30;;;;;;;10.80;6.77;;;;;;;;;;5074565;28;20570;-90
2021/10/15 06:29:15;;;;;;;10.57;6.97;;;;;;;;;;5074742;28;20188;-92
2021/10/15 06:32:00;;;;;;;10.43;6.63;;;;;;;;;;5074148;28;20264;-89
2021/10/15 06:34:47;;;;;;;9.50;6.47;;;;;;;;;;5074201;28;20206;-89
2021/10/15 06:37:32;;;;;;;7.43;6.63;;;;;;;;;;5074014;28;20659;-89
2021/10/15 06:40:18;;;;;;;7.67;6.97;;;;;;;;;;5074367;28;20190;-89
2021/10/15 06:43:03;;;;;;;8.60;6.53;;;;;;;;;;5073966;28;20761;-88
2021/10/15 06:45:48;;;;;;;8.37;6.60;;;;;;;;;;5074169;28;20266;-90
2021/10/15 06:48:33;;;;;;;8.50;6.47;;;;;;;;;;5073855;28;20194;-90
2021/10/15 06:51:19;;;;;;;9.60;7.50;;;;;;;;;;5073741;28;20299;-91
2021/10/15 06:54:04;;;;;;;9.30;7.07;;;;;;;;;;5073928;28;20189;-90
2021/10/15 06:56:49;;;;;;;9.03;7.47;;;;;;;;;;5073634;28;20190;-89
2021/10/15 06:59:34;;;;;;;14.03;7.70;;;;;;;;;;5073671;28;20649;-87
2021/10/15 07:02:20;;;;;;;9.87;7.57;;;;;;;;;;5073526;28;20198;-89
2021/10/15 07:05:05;;;;;;;7.77;6.73;;;;;;;;;;5073687;28;20729;-88
2021/10/15 07:07:52;;;;;;;9.47;6.80;;;;;;;;;;5073571;28;20186;-89
2021/10/15 07:10:38;;;;;;;7.73;6.60;;;;;;;;;;5073398;28;20328;-90
2021/10/15 07:13:23;;;;;;;13.50;8.07;;;;;;;;;;5073228;28;20190;-90
2021/10/15 07:16:10;;;;;;;10.87;7.27;;;;;;;;;;5073488;28;20563;-88
2021/10/15 07:18:55;;;;;;;10.93;6.87;;;;;;;;;;5073078;28;20232;-88
2021/10/15 07:21:40;;;;;;;8.17;7.03;;;;;;;;;;5073049;28;20201;-89
2021/10/15 07:24:28;;;;;;;8.63;6.83;;;;;;;;;;5073303;28;20229;-88
2021/10/15 07:27:14;;;;;;;7.97;6.57;;;;;;;;;;5072817;28;20237;-88
2021/10/15 07:29:59;;;;;;;9.00;7.30;;;;;;;;;;5073017;28;20202;-89
2021/10/15 07:32:44;;;;;;;8.70;6.87;;;;;;;;;;5072919;28;20244;-89
2021/10/15 07:35:29;;;;;;;7.17;6.47;;;;;;;;;;5073043;28;20327;-89
2021/10/15 07:38:14;;;;;;;7.63;6.90;;;;;;;;;;5073200;28;20229;-88
2021/10/15 07:41:01;;;;;;;8.80;6.27;;;;;;;;;;5072942;28;20696;-88
2021/10/15 07:43:47;;;;;;;8.80;6.47;;;;;;;;;;5072566;28;20275;-89
2021/10/15 07:46:32;;;;;;;8.00;6.70;;;;;;;;;;5072884;28;20190;-90
2021/10/15 07:49:17;;;;;;;7.70;6.20;;;;;;;;;;5072529;28;20268;-89
2021/10/15 07:52:02;;;;;;;11.90;7.13;;;;;;;;;;5072657;28;20695;-88
2021/10/15 07:54:47;;;;;;;8.97;6.83;;;;;;;;;;5072483;28;20236;-89
2021/10/15 07:57:33;;;;;;;10.40;6.30;;;;;;;;;;5072632;28;20190;-89
2021/10/15 08:00:18;;;;;;;8.20;6.43;;;;;;;;;;5072558;28;20233;-91
2021/10/15 08:03:04;;;;;;;9.03;6.50;;;;;;;;;;5072381;28;20186;-90
2021/10/15 08:05:49;;;;;;;8.53;6.50;;;;;;;;;;5072345;28;20189;-88
2021/10/15 08:08:34;;;;;;;8.93;6.70;;;;;;;;;;5072424;28;20198;-87
2021/10/15 08:11:19;;;;;;;7.50;6.70;;;;;;;;;;5072560;28;20224;-88
2021/10/15 08:14:05;;;;;;;7.33;6.10;;;;;;;;;;5072435;28;20233;-89
2021/10/15 08:16:51;;;;;;;7.13;6.13;;;;;;;;;;5072180;28;20255;-87
2021/10/15 08:19:36;;;;;;;11.33;6.93;;;;;;;;;;5071896;28;20225;-87
2021/10/15 08:22:22;;;;;;;8.83;6.17;;;;;;;;;;5072003;28;20186;-88
2021/10/15 08:25:07;;;;;;;9.80;6.37;;;;;;;;;;5072146;28;20290;-89
2021/10/15 08:27:52;;;;;;;9.00;6.93;;;;;;;;;;5071713;28;20205;-88
2021/10/15 08:30:39;;;;;;;7.93;5.73;;;;;;;;;;5072196;28;20220;-88
2021/10/15 08:33:24;;;;;;;8.63;5.97;;;;;;;;;;5072552;28;20206;-90
2021/10/15 08:36:09;;;;;;;6.63;6.03;;;;;;;;;;5072067;28;20217;-90
2021/10/15 08:38:54;;;;;;;6.50;5.83;;;;;;;;;;5072034;28;20272;-88
2021/10/15 08:41:39;;;;;;;8.00;5.53;;;;;;;;;;5072000;28;20186;-88
2021/10/15 08:44:27;;;;;;;7.10;5.90;;;;;;;;;;5072079;28;20186;-88
2021/10/15 08:47:14;;;;;;;8.70;6.13;;;;;;;;;;5071845;28;20177;-90
2021/10/15 08:49:59;;;;;;;7.07;6.00;;;;;;;;;;5071896;28;20229;-89
2021/10/15 08:52:44;;;;;;;7.77;6.13;;;;;;;;;;5071792;28;20220;-89
2021/10/15 08:55:30;;;;;;;6.60;6.00;;;;;;;;;;5072294;28;20610;-88
2021/10/15 08:58:15;;;;;;;7.20;5.77;;;;;;;;;;5072131;28;20194;-90
2021/10/15 09:01:00;;;;;;;13.03;5.67;;;;;;;;;;5072071;28;20665;-90
2021/10/15 09:03:46;;;;;;;14.80;5.80;;;;;;;;;;5072064;28;20556;-89
2021/10/15 09:06:35;;;;;;;6.93;5.77;;;;;;;;;;5072034;28;20194;-89
2021/10/15 09:09:27;;;;;;;7.50;5.93;;;;;;;;;;5071523;28;20194;-87
2021/10/15 09:12:13;;;;;;;7.90;6.23;;;;;;;;;;5071492;28;20543;-90
2021/10/15 09:15:06;;;;;;;7.97;5.73;;;;;;;;;;5072572;28;20217;-89
2021/10/15 09:17:52;;;;;;;7.07;4.83;;;;;;;;;;5071675;28;20190;-89
2021/10/15 09:20:39;;;;;;;9.07;5.83;;;;;;;;;;5072052;28;20236;-89
2021/10/15 09:23:42;;;;;;;7.57;5.43;;;;;;;;;;5072417;28;20194;-93
2021/10/15 09:26:28;;;;;;;6.97;5.70;;;;;;;;;;5071985;28;20182;-90
2021/10/15 09:29:15;;;;;;;6.60;5.20;;;;;;;;;;5072018;28;20182;-91
2021/10/15 09:32:01;;;;;;;5.03;4.60;;;;;;;;;;5071670;28;20186;-88
2021/10/15 09:34:47;;;;;;;5.20;4.80;;;;;;;;;;5071754;28;20194;-89
2021/10/15 09:37:34;;;;;;;9.00;4.57;;;;;;;;;;5071471;28;20210;-87
2021/10/15 09:40:20;;;;;;;8.30;5.00;;;;;;;;;;5074872;28;20657;-88
2021/10/15 09:43:07;;;;;;;5.70;4.73;;;;;;;;;;5075463;28;20189;-93
2021/10/15 09:45:53;;;;;;;8.33;5.20;;;;;;;;;;5074881;28;20190;-82
2021/10/15 09:48:39;;;;;;;6.93;4.83;;;;;;;;;;5074363;28;20194;-83
2021/10/15 09:51:25;;;;;;;5.07;4.57;;;;;;;;;;5074478;28;20707;-83
2021/10/15 09:54:14;;;;;;;5.40;4.27;;;;;;;;;;5074272;28;20206;-83
2021/10/15 09:56:59;;;;;;;4.93;4.53;;;;;;;;;;5074260;28;20205;-85
2021/10/15 09:59:44;;;;;;;6.97;4.40;;;;;;;;;;5074141;28;20182;-84
2021/10/15 10:02:29;;;;;;;5.90;4.37;;;;;;;;;;5074403;28;20186;-88
2021/10/15 10:05:16;;;;;;;4.30;3.90;;;;;;;;;;5074629;28;20206;-85
2021/10/15 10:08:01;;;;;;;4.60;4.20;;;;;;;;;;5074017;28;20181;-87
2021/10/15 10:10:48;;;;;;;5.40;4.73;;;;;;;;;;5074591;28;20185;-88
2021/10/15 10:13:33;;;;;;;5.27;4.40;;;;;;;;;;5074680;28;20260;-86
2021/10/15 10:16:19;;;;;;;5.60;4.20;;;;;;;;;;5074296;28;20209;-83
2021/10/15 10:19:04;;;;;;;4.53;4.13;;;;;;;;;;5073897;28;20359;-84
2021/10/15 10:21:49;;;;;;;6.63;4.53;;;;;;;;;;5074246;28;20277;-86
2021/10/15 10:24:35;;;;;;;4.63;4.23;;;;;;;;;;5073899;28;20661;-83
2021/10/15 10:27:32;;;;;;;4.50;3.93;;;;;;;;;;5073542;28;20182;-84
2021/10/15 10:30:17;;;;;;;3.80;3.50;;;;;;;;;;5073725;28;20546;-85
2021/10/15 10:33:03;;;;;;;6.80;3.70;;;;;;;;;;5073547;28;20190;-86
2021/10/15 10:35:48;;;;;;;4.30;3.60;;;;;;;;;;5073474;28;20186;-85
2021/10/15 10:38:34;;;;;;;4.90;3.73;;;;;;;;;;5073533;28;20231;-87
2021/10/15 10:41:27;;;;;;;5.97;4.87;;;;;;;;;;5073713;28;20646;-85
2021/10/15 10:44:14;;;;;;;5.93;4.10;;;;;;;;;;5073476;28;20558;-87
2021/10/15 10:47:06;;;;;;;4.00;3.50;;;;;;;;;;5073581;28;20815;-88
2021/10/15 10:50:09;;;;;;;3.77;3.07;;;;;;;;;;5073175;28;20226;-88
2021/10/15 10:53:13;;;;;;;5.60;3.40;;;;;;;;;;5073801;28;20193;-87
2021/10/15 10:55:58;;;;;;;5.50;2.70;;;;;;;;;;5073730;28;20653;-91
2021/10/15 10:58:43;;;;;;;3.03;2.83;;;;;;;;;;5073529;28;20289;-87
2021/10/15 11:01:30;;;;;;;5.30;3.37;;;;;;;;;;5073580;28;20232;-87
2021/10/15 11:04:26;;;;;;;4.60;3.50;;;;;;;;;;5073857;28;20182;-93
2021/10/15 11:07:22;;;;;;;4.33;3.10;;;;;;;;;;5073667;28;20185;-91
2021/10/15 11:10:21;;;;;;;5.17;3.73;;;;;;;;;;5073553;28;20681;-90
2021/10/15 11:13:07;;;;;;;4.43;3.37;;;;;;;;;;5073846;28;20190;-87
2021/10/15 11:15:52;;;;;;;3.73;3.43;;;;;;;;;;5073224;28;20193;-91
2021/10/15 11:18:38;;;;;;;4.27;3.10;;;;;;;;;;5073374;28;20288;-94
2021/10/15 11:21:23;;;;;;;2.60;2.50;;;;;;;;;;5072796;28;20669;-88
2021/10/15 11:24:13;;;;;;;5.40;3.20;;;;;;;;;;5073071;28;20228;-90
2021/10/15 11:26:58;;;;;;;3.43;3.07;;;;;;;;;;5073157;28;20233;-90
2021/10/15 11:29:50;;;;;;;4.47;2.73;;;;;;;;;;5072714;28;20198;-90
2021/10/15 11:32:36;;;;;;;5.00;3.20;;;;;;;;;;5072543;28;20594;-91
2021/10/15 11:35:24;;;;;;;3.13;2.93;;;;;;;;;;5072999;28;20251;-90
2021/10/15 11:38:09;;;;;;;2.40;2.27;;;;;;;;;;5072298;28;20205;-90
2021/10/15 11:40:55;;;;;;;3.00;2.70;;;;;;;;;;5072183;28;20356;-89
2021/10/15 11:43:41;;;;;;;2.90;2.63;;;;;;;;;;5072091;28;20317;-90
2021/10/15 11:46:30;;;;;;;2.57;2.40;;;;;;;;;;5072488;28;20182;-90
2021/10/15 11:49:15;;;;;;;2.73;2.37;;;;;;;;;;5072981;28;20556;-88
2021/10/15 11:52:02;;;;;;;2.97;2.77;;;;;;;;;;5072782;28;20547;-91
2021/10/15 11:54:47;;;;;;;2.80;2.60;;;;;;;;;;5072739;28;20182;-90
2021/10/15 11:57:32;;;;;;;3.93;2.90;;;;;;;;;;5072989;28;20256;-92
2021/10/15 12:00:17;;;;;;;6.17;2.93;;;;;;;;;;5072770;28;20228;-91
2021/10/15 12:03:03;;;;;;;4.37;3.17;;;;;;;;;;5072257;28;20657;-94
2021/10/15 12:05:47;;;;;;;5.83;3.10;;;;;;;;;;5072750;28;20716;-92
2021/10/15 12:08:35;;;;;;;2.80;2.60;;;;;;;;;;5072616;28;20186;-94
2021/10/15 12:11:23;;;;;;;3.87;2.97;;;;;;;;;;5072869;28;20194;-91
2021/10/15 12:14:09;;;;;;;2.87;2.50;;;;;;;;;;5073290;28;20186;-92
2021/10/15 12:16:56;;;;;;;2.67;2.47;;;;;;;;;;5072609;28;20210;-91
2021/10/15 12:19:42;;;;;;;2.87;2.50;;;;;;;;;;5072042;28;20315;-92
2021/10/15 12:22:28;;;;;;;3.90;2.73;;;;;;;;;;5072348;28;20294;-91
2021/10/15 12:25:25;;;;;;;3.27;2.63;;;;;;;;;;5072326;28;20193;-91
2021/10/15 12:28:11;;;;;;;3.73;2.80;;;;;;;;;;5072164;28;20201;-91
2021/10/15 12:30:57;;;;;;;5.60;2.70;;;;;;;;;;5071890;28;20193;-90
2021/10/15 12:33:57;;;;;;;4.30;2.97;;;;;;;;;;5072154;28;20190;-92
2021/10/15 12:36:42;;;;;;;4.60;2.80;;;;;;;;;;5071937;28;20657;-90
2021/10/15 12:39:28;;;;;;;3.30;2.97;;;;;;;;;;5071918;28;20308;-93
2021/10/15 12:42:16;;;;;;;2.80;2.60;;;;;;;;;;5071977;28;20198;-88
2021/10/15 12:45:04;;;;;;;2.90;2.70;;;;;;;;;;5071790;28;20253;-91
2021/10/15 12:47:56;;;;;;;4.73;2.77;;;;;;;;;;5071922;28;20716;-90
2021/10/15 12:50:43;;;;;;;3.00;2.60;;;;;;;;;;5071689;28;20716;-91
2021/10/15 12:53:35;;;;;;;3.10;2.73;;;;;;;;;;5071728;28;20179;-91
2021/10/15 12:56:21;;;;;;;2.63;2.43;;;;;;;;;;5071744;28;20182;-91
2021/10/15 12:59:17;;;;;;;2.50;2.27;;;;;;;;;;5071792;28;20189;-89
2021/10/15 13:02:04;;;;;;;2.70;2.30;;;;;;;;;;5071658;28;20190;-92
2021/10/15 13:04:49;;;;;;;8.30;2.83;;;;;;;;;;5071713;28;20229;-92
2021/10/15 13:07:34;;;;;;;2.80;2.60;;;;;;;;;;5071440;28;20205;-91
2021/10/15 13:10:21;;;;;;;2.50;2.30;;;;;;;;;;5071010;28;20220;-90
2021/10/15 13:13:06;;;;;;;2.77;2.57;;;;;;;;;;5072273;28;20190;-90
2021/10/15 13:15:52;;;;;;;2.90;2.70;;;;;;;;;;5075305;28;20186;-91
2021/10/15 13:18:37;;;;;;;4.20;2.40;;;;;;;;;;5075059;28;20233;-90
2021/10/15 13:21:22;;;;;;;3.10;2.60;;;;;;;;;;5075249;28;20284;-92
2021/10/15 13:24:07;;;;;;;3.27;2.13;;;;;;;;;;5075238;28;20182;-90
2021/10/15 13:26:53;;;;;;;2.70;2.40;;;;;;;;;;5075039;28;20256;-92
2021/10/15 13:29:38;;;;;;;2.40;2.20;;;;;;;;;;5075194;28;20409;-90
2021/10/15 13:32:24;;;;;;;2.43;2.23;;;;;;;;;;5075342;28;20182;-90
2021/10/15 13:35:09;;;;;;;2.13;2.03;;;;;;;;;;5075084;28;20587;-90
2021/10/15 13:37:58;;;;;;;2.10;2.00;;;;;;;;;;5074586;28;20218;-88
2021/10/15 13:40:53;;;;;;;2.57;2.03;;;;;;;;;;5074749;28;20236;-88
2021/10/15 13:43:47;;;;;;;4.03;2.30;;;;;;;;;;5074616;28;20224;-90
2021/10/15 13:46:38;;;;;;;2.40;2.20;;;;;;;;;;5074468;28;20194;-88
2021/10/15 13:49:45;;;;;;;2.77;2.33;;;;;;;;;;5074362;28;20601;-89
2021/10/15 13:52:30;;;;;;;3.53;2.00;;;;;;;;;;5074259;28;20553;-89
2021/10/15 13:55:15;;;;;;;2.20;2.00;;;;;;;;;;5074286;28;20316;-87
2021/10/15 13:58:02;;;;;;;3.00;1.90;;;;;;;;;;5074082;28;20220;-89
2021/10/15 14:00:49;;;;;;;4.17;2.37;;;;;;;;;;5074398;28;20236;-91
2021/10/15 14:04:15;;;;;;;2.50;2.30;;;;;;;;;;5074405;28;20178;-89
2021/10/15 14:07:42;;;;;;;2.00;1.90;;;;;;;;;;5074732;28;20229;-91
2021/10/15 14:10:27;;;;;;;2.23;2.03;;;;;;;;;;5074454;28;20305;-92
2021/10/15 14:13:12;;;;;;;3.30;2.30;;;;;;;;;;5074101;28;20194;-90
2021/10/15 14:15:57;;;;;;;1.97;1.97;;;;;;;;;;5073983;28;20199;-90
2021/10/15 14:18:42;;;;;;;2.20;2.00;;;;;;;;;;5073816;28;20241;-92
2021/10/15 14:21:27;;;;;;;2.27;2.17;;;;;;;;;;5074201;28;20202;-87
2021/10/15 14:24:13;;;;;;;2.30;2.20;;;;;;;;;;5073818;28;20202;-90
2021/10/15 14:27:01;;;;;;;2.30;2.10;;;;;;;;;;5074140;28;20182;-92
2021/10/15 14:29:48;;;;;;;2.00;1.90;;;;;;;;;;5074010;28;20177;-90
2021/10/15 14:32:34;;;;;;;6.43;2.37;;;;;;;;;;5074201;28;20209;-90
2021/10/15 14:35:19;;;;;;;4.67;1.80;;;;;;;;;;5074090;28;20202;-91
2021/10/15 14:38:04;;;;;;;3.30;2.17;;;;;;;;;;5074037;28;20202;-91
2021/10/15 14:40:51;;;;;;;2.40;2.20;;;;;;;;;;5074093;28;20261;-91
2021/10/15 14:43:36;;;;;;;3.30;1.93;;;;;;;;;;5075286;28;20277;-92
2021/10/15 14:46:21;;;;;;;2.10;1.90;;;;;;;;;;5074128;28;20186;-91
2021/10/15 14:49:06;;;;;;;2.17;2.00;;;;;;;;;;5073667;28;20190;-89
2021/10/15 14:51:51;;;;;;;3.23;2.10;;;;;;;;;;5073550;28;20590;-89
2021/10/15 14:54:36;;;;;;;2.10;2.00;;;;;;;;;;5073564;28;20182;-90
2021/10/15 14:57:22;;;;;;;2.90;1.87;;;;;;;;;;5073568;28;20232;-90
2021/10/15 15:00:08;;;;;;;3.03;1.87;;;;;;;;;;5073838;28;20182;-91
2021/10/15 15:02:54;;;;;;;2.20;2.00;;;;;;;;;;5073349;28;21111;-90
2021/10/15 15:05:39;;;;;;;2.57;2.10;;;;;;;;;;5073429;28;20193;-92
2021/10/15 15:08:24;;;;;;;2.78;2.20;;;;;;;;;;5073937;28;20190;-91
2021/10/15 15:11:09;;;;;;;2.17;2.07;;;;;;;;;;5073370;28;20190;-92
2021/10/15 15:13:55;;;;;;;2.70;2.10;;;;;;;;;;5073810;28;20194;-92
2021/10/15 15:16:40;;;;;;;4.78;2.22;;;;;;;;;;5073521;28;20562;-91
2021/10/15 15:19:25;;;;;;;2.10;1.90;;;;;;;;;;5073188;28;20827;-93
2021/10/15 15:22:11;;;;;;;2.67;2.20;;;;;;;;;;5073158;28;20201;-90
2021/10/15 15:24:56;;;;;;;3.50;2.40;;;;;;;;;;5073001;28;20534;-89
2021/10/15 15:27:41;;;;;;;3.17;2.97;;;;;;;;;;5072723;28;20193;-91
2021/10/15 15:30:27;;;;;;;2.27;2.07;;;;;;;;;;5073061;28;20608;-91
2021/10/15 15:33:14;;;;;;;2.50;2.30;;;;;;;;;;5073021;28;20716;-90
2021/10/15 15:35:59;;;;;;;2.43;2.03;;;;;;;;;;5072333;28;20189;-90
2021/10/15 15:38:45;;;;;;;2.40;2.23;;;;;;;;;;5072394;28;20210;-89
2021/10/15 15:41:30;;;;;;;2.90;2.67;;;;;;;;;;5072766;28;20216;-89
2021/10/15 15:44:19;;;;;;;3.57;2.50;;;;;;;;;;5072743;28;20331;-90
2021/10/15 15:47:05;;;;;;;2.27;2.17;;;;;;;;;;5072341;28;20228;-90
2021/10/15 15:49:51;;;;;;;3.73;2.37;;;;;;;;;;5072682;28;20221;-90
2021/10/15 15:52:42;;;;;;;3.23;2.57;;;;;;;;;;5072782;28;20189;-90
2021/10/15 15:55:27;;;;;;;4.50;2.70;;;;;;;;;;5072381;28;20197;-91
2021/10/15 15:58:13;;;;;;;3.73;2.53;;;;;;;;;;5072286;28;20209;-89
2021/10/15 16:00:58;;;;;;;3.83;2.23;;;;;;;;;;5072337;28;20193;-91
2021/10/15 16:03:45;;;;;;;2.70;2.50;;;;;;;;;;5072962;28;20210;-89
2021/10/15 16:06:30;;;;;;;3.67;2.40;;;;;;;;;;5072363;28;20224;-91
2021/10/15 16:09:15;;;;;;;4.13;2.50;;;;;;;;;;5072500;28;20186;-90
2021/10/15 16:12:00;;;;;;;2.33;2.13;;;;;;;;;;5071821;28;20611;-88
2021/10/15 16:14:45;;;;;;;2.50;2.30;;;;;;;;;;5071625;28;20190;-89
2021/10/15 16:17:30;;;;;;;2.33;2.10;;;;;;;;;;5071438;28;20182;-89
2021/10/15 16:20:17;;;;;;;3.50;2.60;;;;;;;;;;5071152;28;20217;-89
2021/10/15 16:23:02;;;;;;;2.80;2.60;;;;;;;;;;5071023;28;20186;-88
2021/10/15 16:25:48;;;;;;;2.57;2.37;;;;;;;;;;5071073;28;20198;-85
2021/10/15 16:28:33;;;;;;;3.43;2.40;;;;;;;;;;5071497;28;20189;-82
2021/10/15 16:31:18;;;;;;;3.67;2.40;;;;;;;;;;5071456;28;20201;-85
2021/10/15 16:34:03;;;;;;;3.67;2.30;;;;;;;;;;5071214;28;20194;-88
2021/10/15 16:36:49;;;;;;;3.83;3.03;;;;;;;;;;5071365;28;20558;-84
2021/10/15 16:39:35;;;;;;;5.47;2.87;;;;;;;;;;5071430;28;20240;-83
2021/10/15 16:42:20;;;;;;;3.23;2.60;;;;;;;;;;5071859;28;20190;-84
2021/10/15 16:45:06;;;;;;;2.83;2.63;;;;;;;;;;5071590;28;20233;-84
2021/10/15 16:47:51;;;;;;;5.83;2.80;;;;;;;;;;5072095;28;20244;-84